sensor_id;sensor_type;location;lat;lon;timestamp;P1;durP1;ratioP1;P2;durP2;ratioP2
78322;SDS011;67583;50.616;-3.404;2023-03-02T00:00:41;7.20;;;3.63;;
78322;SDS011;67583;50.616;-3.404;2023-03-02T00:03:08;9.10;;;4.22;;
78322;SDS011;67583;50.616;-3.404;2023-03-02T00:05:34;4.25;;;3.00;;
78322;SDS011;67583;50.616;-3.404;2023-03-02T00:08:00;8.20;;;3.80;;
78322;SDS011;67583;50.616;-3.404;2023-03-02T00:10:26;6.93;;;3.88;;
78322;SDS011;67583;50.616;-3.404;2023-03-02T00:12:52;5.22;;;3.53;;
78322;SDS011;67583;50.616;-3.404;2023-03-02T00:17:43;6.07;;;3.70;;
78322;SDS011;67583;50.616;-3.404;2023-03-02T00:22:34;6.82;;;3.85;;
78322;SDS011;67583;50.616;-3.404;2023-03-02T00:25:00;6.20;;;3.60;;
78322;SDS011;67583;50.616;-3.404;2023-03-02T00:27:26;8.90;;;4.40;;
78322;SDS011;67583;50.616;-3.404;2023-03-02T00:29:54;6.85;;;3.42;;
78322;SDS011;67583;50.616;-3.404;2023-03-02T00:32:20;5.40;;;3.30;;
78322;SDS011;67583;50.616;-3.404;2023-03-02T00:37:10;5.30;;;3.28;;
78322;SDS011;67583;50.616;-3.404;2023-03-02T00:42:01;8.73;;;3.40;;
78322;SDS011;67583;50.616;-3.404;2023-03-02T00:46:51;4.80;;;3.13;;
78322;SDS011;67583;50.616;-3.404;2023-03-02T00:49:17;5.43;;;3.05;;
78322;SDS011;67583;50.616;-3.404;2023-03-02T00:54:07;8.53;;;3.37;;
78322;SDS011;67583;50.616;-3.404;2023-03-02T00:59:02;9.00;;;3.70;;
78322;SDS011;67583;50.616;-3.404;2023-03-02T01:01:30;7.18;;;3.47;;
78322;SDS011;67583;50.616;-3.404;2023-03-02T01:03:56;6.43;;;3.30;;
78322;SDS011;67583;50.616;-3.404;2023-03-02T01:08:46;8.60;;;3.40;;
78322;SDS011;67583;50.616;-3.404;2023-03-02T01:13:38;4.97;;;3.15;;
78322;SDS011;67583;50.616;-3.404;2023-03-02T01:18:29;6.05;;;2.78;;
78322;SDS011;67583;50.616;-3.404;2023-03-02T01:23:29;7.13;;;3.60;;
78322;SDS011;67583;50.616;-3.404;2023-03-02T01:25:55;4.70;;;2.80;;
78322;SDS011;67583;50.616;-3.404;2023-03-02T01:30:45;4.53;;;2.80;;
78322;SDS011;67583;50.616;-3.404;2023-03-02T01:35:36;6.03;;;3.23;;
78322;SDS011;67583;50.616;-3.404;2023-03-02T01:40:27;6.30;;;3.25;;
78322;SDS011;67583;50.616;-3.404;2023-03-02T01:45:38;4.57;;;2.80;;
78322;SDS011;67583;50.616;-3.404;2023-03-02T01:48:10;6.13;;;2.85;;
78322;SDS011;67583;50.616;-3.404;2023-03-02T01:50:36;6.60;;;3.70;;
78322;SDS011;67583;50.616;-3.404;2023-03-02T01:55:28;7.25;;;5.10;;
78322;SDS011;67583;50.616;-3.404;2023-03-02T01:57:56;7.80;;;7.00;;
78322;SDS011;67583;50.616;-3.404;2023-03-02T02:00:23;8.48;;;4.68;;
78322;SDS011;67583;50.616;-3.404;2023-03-02T02:02:51;7.53;;;4.03;;
78322;SDS011;67583;50.616;-3.404;2023-03-02T02:07:44;7.10;;;4.72;;
78322;SDS011;67583;50.616;-3.404;2023-03-02T02:12:37;5.18;;;2.95;;
78322;SDS011;67583;50.616;-3.404;2023-03-02T02:15:02;10.05;;;3.88;;
78322;SDS011;67583;50.616;-3.404;2023-03-02T02:17:29;6.03;;;3.20;;
78322;SDS011;67583;50.616;-3.404;2023-03-02T02:22:35;5.35;;;3.50;;
78322;SDS011;67583;50.616;-3.404;2023-03-02T02:25:11;7.10;;;4.68;;
78322;SDS011;67583;50.616;-3.404;2023-03-02T02:27:44;7.55;;;4.65;;
78322;SDS011;67583;50.616;-3.404;2023-03-02T02:30:10;7.07;;;4.45;;
78322;SDS011;67583;50.616;-3.404;2023-03-02T02:32:37;5.57;;;4.72;;
78322;SDS011;67583;50.616;-3.404;2023-03-02T02:35:08;13.77;;;6.38;;
78322;SDS011;67583;50.616;-3.404;2023-03-02T02:37:40;10.32;;;6.38;;
78322;SDS011;67583;50.616;-3.404;2023-03-02T02:43:00;7.18;;;3.80;;
78322;SDS011;67583;50.616;-3.404;2023-03-02T02:45:26;8.35;;;4.60;;
78322;SDS011;67583;50.616;-3.404;2023-03-02T02:50:18;7.60;;;5.32;;
78322;SDS011;67583;50.616;-3.404;2023-03-02T02:52:48;9.45;;;6.47;;
78322;SDS011;67583;50.616;-3.404;2023-03-02T02:55:18;10.38;;;6.18;;
78322;SDS011;67583;50.616;-3.404;2023-03-02T02:57:45;8.73;;;5.43;;
78322;SDS011;67583;50.616;-3.404;2023-03-02T03:02:42;7.95;;;5.90;;
78322;SDS011;67583;50.616;-3.404;2023-03-02T03:05:12;11.95;;;6.90;;
78322;SDS011;67583;50.616;-3.404;2023-03-02T03:07:38;7.50;;;4.95;;
78322;SDS011;67583;50.616;-3.404;2023-03-02T03:12:29;7.00;;;4.90;;
78322;SDS011;67583;50.616;-3.404;2023-03-02T03:14:56;9.63;;;5.25;;
78322;SDS011;67583;50.616;-3.404;2023-03-02T03:19:47;9.07;;;4.53;;
78322;SDS011;67583;50.616;-3.404;2023-03-02T03:24:39;9.77;;;5.18;;
78322;SDS011;67583;50.616;-3.404;2023-03-02T03:27:06;12.70;;;6.30;;
78322;SDS011;67583;50.616;-3.404;2023-03-02T03:29:33;7.93;;;5.72;;
78322;SDS011;67583;50.616;-3.404;2023-03-02T03:32:01;12.75;;;6.90;;
78322;SDS011;67583;50.616;-3.404;2023-03-02T03:34:28;10.18;;;7.78;;
78322;SDS011;67583;50.616;-3.404;2023-03-02T03:36:54;14.32;;;7.40;;
78322;SDS011;67583;50.616;-3.404;2023-03-02T03:39:25;10.82;;;6.32;;
78322;SDS011;67583;50.616;-3.404;2023-03-02T03:41:51;8.82;;;6.07;;
78322;SDS011;67583;50.616;-3.404;2023-03-02T03:46:42;12.50;;;5.87;;
78322;SDS011;67583;50.616;-3.404;2023-03-02T03:51:33;10.73;;;6.53;;
78322;SDS011;67583;50.616;-3.404;2023-03-02T03:56:29;12.63;;;7.90;;
78322;SDS011;67583;50.616;-3.404;2023-03-02T03:58:55;9.88;;;6.65;;
78322;SDS011;67583;50.616;-3.404;2023-03-02T04:03:59;14.57;;;9.90;;
78322;SDS011;67583;50.616;-3.404;2023-03-02T04:06:25;14.80;;;9.18;;
78322;SDS011;67583;50.616;-3.404;2023-03-02T04:11:16;18.13;;;10.63;;
78322;SDS011;67583;50.616;-3.404;2023-03-02T04:16:06;13.83;;;8.33;;
78322;SDS011;67583;50.616;-3.404;2023-03-02T04:18:32;12.35;;;7.90;;
78322;SDS011;67583;50.616;-3.404;2023-03-02T04:23:22;11.33;;;6.30;;
78322;SDS011;67583;50.616;-3.404;2023-03-02T04:28:13;11.20;;;7.63;;
78322;SDS011;67583;50.616;-3.404;2023-03-02T04:30:41;10.20;;;6.78;;
78322;SDS011;67583;50.616;-3.404;2023-03-02T04:35:31;11.15;;;7.05;;
78322;SDS011;67583;50.616;-3.404;2023-03-02T04:40:23;15.65;;;8.05;;
78322;SDS011;67583;50.616;-3.404;2023-03-02T04:42:48;12.60;;;7.80;;
78322;SDS011;67583;50.616;-3.404;2023-03-02T04:47:39;12.45;;;8.50;;
78322;SDS011;67583;50.616;-3.404;2023-03-02T04:52:31;18.10;;;10.73;;
78322;SDS011;67583;50.616;-3.404;2023-03-02T04:57:21;18.23;;;11.90;;
78322;SDS011;67583;50.616;-3.404;2023-03-02T05:02:12;16.33;;;10.40;;
78322;SDS011;67583;50.616;-3.404;2023-03-02T05:07:04;22.75;;;12.60;;
78322;SDS011;67583;50.616;-3.404;2023-03-02T05:11:56;13.02;;;9.45;;
78322;SDS011;67583;50.616;-3.404;2023-03-02T05:14:22;21.95;;;13.15;;
78322;SDS011;67583;50.616;-3.404;2023-03-02T05:19:13;19.60;;;11.20;;
78322;SDS011;67583;50.616;-3.404;2023-03-02T05:21:39;23.00;;;12.88;;
78322;SDS011;67583;50.616;-3.404;2023-03-02T05:26:30;15.82;;;9.98;;
78322;SDS011;67583;50.616;-3.404;2023-03-02T05:31:31;14.95;;;9.75;;
78322;SDS011;67583;50.616;-3.404;2023-03-02T05:34:07;15.70;;;9.80;;
78322;SDS011;67583;50.616;-3.404;2023-03-02T05:36:34;14.35;;;8.93;;
78322;SDS011;67583;50.616;-3.404;2023-03-02T05:41:28;13.13;;;8.20;;
78322;SDS011;67583;50.616;-3.404;2023-03-02T05:43:53;13.52;;;8.60;;
78322;SDS011;67583;50.616;-3.404;2023-03-02T05:48:44;14.23;;;8.55;;
78322;SDS011;67583;50.616;-3.404;2023-03-02T05:51:10;15.00;;;9.25;;
78322;SDS011;67583;50.616;-3.404;2023-03-02T05:56:01;14.10;;;8.03;;
78322;SDS011;67583;50.616;-3.404;2023-03-02T06:00:52;14.88;;;8.75;;
78322;SDS011;67583;50.616;-3.404;2023-03-02T06:03:18;16.05;;;9.27;;
78322;SDS011;67583;50.616;-3.404;2023-03-02T06:05:43;14.57;;;8.80;;
78322;SDS011;67583;50.616;-3.404;2023-03-02T06:08:09;16.02;;;8.70;;
78322;SDS011;67583;50.616;-3.404;2023-03-02T06:10:34;12.60;;;7.47;;
78322;SDS011;67583;50.616;-3.404;2023-03-02T06:13:00;13.68;;;9.32;;
78322;SDS011;67583;50.616;-3.404;2023-03-02T06:15:25;13.73;;;8.15;;
78322;SDS011;67583;50.616;-3.404;2023-03-02T06:17:53;15.35;;;8.45;;
78322;SDS011;67583;50.616;-3.404;2023-03-02T06:22:45;15.57;;;8.70;;
78322;SDS011;67583;50.616;-3.404;2023-03-02T06:25:12;13.30;;;8.05;;
78322;SDS011;67583;50.616;-3.404;2023-03-02T06:27:41;12.10;;;7.93;;
78322;SDS011;67583;50.616;-3.404;2023-03-02T06:30:07;14.23;;;8.90;;
78322;SDS011;67583;50.616;-3.404;2023-03-02T06:32:34;13.35;;;8.63;;
78322;SDS011;67583;50.616;-3.404;2023-03-02T06:37:26;12.95;;;7.22;;
78322;SDS011;67583;50.616;-3.404;2023-03-02T06:39:53;12.80;;;9.00;;
78322;SDS011;67583;50.616;-3.404;2023-03-02T06:42:19;18.40;;;9.13;;
78322;SDS011;67583;50.616;-3.404;2023-03-02T06:44:44;15.60;;;8.68;;
78322;SDS011;67583;50.616;-3.404;2023-03-02T06:47:09;14.48;;;9.60;;
78322;SDS011;67583;50.616;-3.404;2023-03-02T06:49:35;17.08;;;10.20;;
78322;SDS011;67583;50.616;-3.404;2023-03-02T06:52:00;16.35;;;9.95;;
78322;SDS011;67583;50.616;-3.404;2023-03-02T06:54:25;14.68;;;9.25;;
78322;SDS011;67583;50.616;-3.404;2023-03-02T06:56:51;12.68;;;8.73;;
78322;SDS011;67583;50.616;-3.404;2023-03-02T06:59:16;12.63;;;8.75;;
78322;SDS011;67583;50.616;-3.404;2023-03-02T07:04:07;19.50;;;9.20;;
78322;SDS011;67583;50.616;-3.404;2023-03-02T07:06:32;14.80;;;8.65;;
78322;SDS011;67583;50.616;-3.404;2023-03-02T07:08:57;16.00;;;8.68;;
78322;SDS011;67583;50.616;-3.404;2023-03-02T07:11:23;16.95;;;10.02;;
78322;SDS011;67583;50.616;-3.404;2023-03-02T07:13:49;13.65;;;9.32;;
78322;SDS011;67583;50.616;-3.404;2023-03-02T07:16:15;15.88;;;10.43;;
78322;SDS011;67583;50.616;-3.404;2023-03-02T07:18:40;19.90;;;11.60;;
78322;SDS011;67583;50.616;-3.404;2023-03-02T07:21:05;13.93;;;9.45;;
78322;SDS011;67583;50.616;-3.404;2023-03-02T07:25:56;16.33;;;9.10;;
78322;SDS011;67583;50.616;-3.404;2023-03-02T07:28:21;14.05;;;7.95;;
78322;SDS011;67583;50.616;-3.404;2023-03-02T07:30:48;14.65;;;8.77;;
78322;SDS011;67583;50.616;-3.404;2023-03-02T07:33:14;15.50;;;9.18;;
78322;SDS011;67583;50.616;-3.404;2023-03-02T07:38:05;17.57;;;9.67;;
78322;SDS011;67583;50.616;-3.404;2023-03-02T07:40:30;16.38;;;9.52;;
78322;SDS011;67583;50.616;-3.404;2023-03-02T07:42:59;17.50;;;9.38;;
78322;SDS011;67583;50.616;-3.404;2023-03-02T07:45:24;15.82;;;9.85;;
78322;SDS011;67583;50.616;-3.404;2023-03-02T07:47:50;16.02;;;10.48;;
78322;SDS011;67583;50.616;-3.404;2023-03-02T07:50:15;18.15;;;9.70;;
78322;SDS011;67583;50.616;-3.404;2023-03-02T07:52:41;15.25;;;9.73;;
78322;SDS011;67583;50.616;-3.404;2023-03-02T07:57:32;20.40;;;11.10;;
78322;SDS011;67583;50.616;-3.404;2023-03-02T07:59:57;26.58;;;11.50;;
78322;SDS011;67583;50.616;-3.404;2023-03-02T08:02:23;17.65;;;10.55;;
78322;SDS011;67583;50.616;-3.404;2023-03-02T08:04:49;20.33;;;11.10;;
78322;SDS011;67583;50.616;-3.404;2023-03-02T08:07:16;18.13;;;10.40;;
78322;SDS011;67583;50.616;-3.404;2023-03-02T08:09:42;19.63;;;12.27;;
78322;SDS011;67583;50.616;-3.404;2023-03-02T08:12:07;20.58;;;11.27;;
78322;SDS011;67583;50.616;-3.404;2023-03-02T08:14:32;20.40;;;12.32;;
78322;SDS011;67583;50.616;-3.404;2023-03-02T08:16:58;23.80;;;13.13;;
78322;SDS011;67583;50.616;-3.404;2023-03-02T08:19:23;18.75;;;11.65;;
78322;SDS011;67583;50.616;-3.404;2023-03-02T08:21:50;18.67;;;11.15;;
78322;SDS011;67583;50.616;-3.404;2023-03-02T08:24:16;19.67;;;11.10;;
78322;SDS011;67583;50.616;-3.404;2023-03-02T08:26:41;22.25;;;12.23;;
78322;SDS011;67583;50.616;-3.404;2023-03-02T08:29:07;21.65;;;12.55;;
78322;SDS011;67583;50.616;-3.404;2023-03-02T08:31:32;21.58;;;12.23;;
78322;SDS011;67583;50.616;-3.404;2023-03-02T08:33:57;22.83;;;12.98;;
78322;SDS011;67583;50.616;-3.404;2023-03-02T08:36:23;21.20;;;12.73;;
78322;SDS011;67583;50.616;-3.404;2023-03-02T08:38:49;23.13;;;11.15;;
78322;SDS011;67583;50.616;-3.404;2023-03-02T08:41:16;19.55;;;11.88;;
78322;SDS011;67583;50.616;-3.404;2023-03-02T08:43:43;17.05;;;11.57;;
78322;SDS011;67583;50.616;-3.404;2023-03-02T08:46:09;16.50;;;8.88;;
78322;SDS011;67583;50.616;-3.404;2023-03-02T08:48:35;19.35;;;9.82;;
78322;SDS011;67583;50.616;-3.404;2023-03-02T08:51:02;15.10;;;9.60;;
78322;SDS011;67583;50.616;-3.404;2023-03-02T08:53:30;16.00;;;9.88;;
78322;SDS011;67583;50.616;-3.404;2023-03-02T08:55:56;18.17;;;10.10;;
78322;SDS011;67583;50.616;-3.404;2023-03-02T09:00:47;14.23;;;8.53;;
78322;SDS011;67583;50.616;-3.404;2023-03-02T09:03:13;15.25;;;8.45;;
78322;SDS011;67583;50.616;-3.404;2023-03-02T09:08:04;10.67;;;6.37;;
78322;SDS011;67583;50.616;-3.404;2023-03-02T09:12:55;9.75;;;5.30;;
78322;SDS011;67583;50.616;-3.404;2023-03-02T09:17:46;9.50;;;6.30;;
78322;SDS011;67583;50.616;-3.404;2023-03-02T09:22:38;6.53;;;5.03;;
78322;SDS011;67583;50.616;-3.404;2023-03-02T09:25:04;7.60;;;5.75;;
78322;SDS011;67583;50.616;-3.404;2023-03-02T09:27:30;8.80;;;5.00;;
78322;SDS011;67583;50.616;-3.404;2023-03-02T09:29:56;9.02;;;6.60;;
78322;SDS011;67583;50.616;-3.404;2023-03-02T09:34:47;9.35;;;6.40;;
78322;SDS011;67583;50.616;-3.404;2023-03-02T09:37:12;8.52;;;5.53;;
78322;SDS011;67583;50.616;-3.404;2023-03-02T09:39:37;9.52;;;5.75;;
78322;SDS011;67583;50.616;-3.404;2023-03-02T09:42:15;8.77;;;5.55;;
78322;SDS011;67583;50.616;-3.404;2023-03-02T09:50:29;11.55;;;6.25;;
78322;SDS011;67583;50.616;-3.404;2023-03-02T09:55:31;7.97;;;6.13;;
78322;SDS011;67583;50.616;-3.404;2023-03-02T09:57:58;9.27;;;6.35;;
78322;SDS011;67583;50.616;-3.404;2023-03-02T10:00:44;9.80;;;6.80;;
78322;SDS011;67583;50.616;-3.404;2023-03-02T10:03:25;9.43;;;6.45;;
78322;SDS011;67583;50.616;-3.404;2023-03-02T10:05:54;10.75;;;6.20;;
78322;SDS011;67583;50.616;-3.404;2023-03-02T10:08:23;7.63;;;5.53;;
78322;SDS011;67583;50.616;-3.404;2023-03-02T10:21:38;50.03;;;38.50;;
78322;SDS011;67583;50.616;-3.404;2023-03-02T10:27:23;11.63;;;8.25;;
78322;SDS011;67583;50.616;-3.404;2023-03-02T10:30:00;11.05;;;7.88;;
78322;SDS011;67583;50.616;-3.404;2023-03-02T10:32:30;12.52;;;8.77;;
78322;SDS011;67583;50.616;-3.404;2023-03-02T10:34:57;10.65;;;7.38;;
78322;SDS011;67583;50.616;-3.404;2023-03-02T10:37:25;11.02;;;7.43;;
78322;SDS011;67583;50.616;-3.404;2023-03-02T10:39:53;9.75;;;7.18;;
78322;SDS011;67583;50.616;-3.404;2023-03-02T10:45:05;16.75;;;10.13;;
78322;SDS011;67583;50.616;-3.404;2023-03-02T10:47:35;14.18;;;9.52;;
78322;SDS011;67583;50.616;-3.404;2023-03-02T10:50:00;17.20;;;10.27;;
78322;SDS011;67583;50.616;-3.404;2023-03-02T10:55:02;16.25;;;9.35;;
78322;SDS011;67583;50.616;-3.404;2023-03-02T10:57:37;18.83;;;12.13;;
78322;SDS011;67583;50.616;-3.404;2023-03-02T11:00:15;13.35;;;9.80;;
78322;SDS011;67583;50.616;-3.404;2023-03-02T11:02:49;21.88;;;13.20;;
78322;SDS011;67583;50.616;-3.404;2023-03-02T11:10:32;22.17;;;13.35;;
78322;SDS011;67583;50.616;-3.404;2023-03-02T11:13:07;20.60;;;13.40;;
78322;SDS011;67583;50.616;-3.404;2023-03-02T11:15:44;19.20;;;11.68;;
78322;SDS011;67583;50.616;-3.404;2023-03-02T11:20:51;19.00;;;12.50;;
78322;SDS011;67583;50.616;-3.404;2023-03-02T11:26:19;19.42;;;13.13;;
78322;SDS011;67583;50.616;-3.404;2023-03-02T11:28:48;19.75;;;12.82;;
78322;SDS011;67583;50.616;-3.404;2023-03-02T11:31:39;16.73;;;10.38;;
78322;SDS011;67583;50.616;-3.404;2023-03-02T11:34:04;18.20;;;11.95;;
78322;SDS011;67583;50.616;-3.404;2023-03-02T11:39:29;15.38;;;11.23;;
78322;SDS011;67583;50.616;-3.404;2023-03-02T11:42:34;18.70;;;11.93;;
78322;SDS011;67583;50.616;-3.404;2023-03-02T11:45:12;19.35;;;12.93;;
78322;SDS011;67583;50.616;-3.404;2023-03-02T11:47:45;16.65;;;11.35;;
78322;SDS011;67583;50.616;-3.404;2023-03-02T11:50:13;18.85;;;12.25;;
78322;SDS011;67583;50.616;-3.404;2023-03-02T11:52:41;19.27;;;13.52;;
78322;SDS011;67583;50.616;-3.404;2023-03-02T11:57:53;17.92;;;12.20;;
78322;SDS011;67583;50.616;-3.404;2023-03-02T12:05:25;15.68;;;11.27;;
78322;SDS011;67583;50.616;-3.404;2023-03-02T12:07:59;21.00;;;13.00;;
78322;SDS011;67583;50.616;-3.404;2023-03-02T12:10:54;17.73;;;11.57;;
78322;SDS011;67583;50.616;-3.404;2023-03-02T12:13:29;15.15;;;10.90;;
78322;SDS011;67583;50.616;-3.404;2023-03-02T12:15:56;16.30;;;11.45;;
78322;SDS011;67583;50.616;-3.404;2023-03-02T12:21:04;17.27;;;11.70;;
78322;SDS011;67583;50.616;-3.404;2023-03-02T12:23:34;17.92;;;12.00;;
78322;SDS011;67583;50.616;-3.404;2023-03-02T12:26:02;16.23;;;10.70;;
78322;SDS011;67583;50.616;-3.404;2023-03-02T12:28:33;15.93;;;11.15;;
78322;SDS011;67583;50.616;-3.404;2023-03-02T12:31:07;19.48;;;12.80;;
78322;SDS011;67583;50.616;-3.404;2023-03-02T12:33:40;18.98;;;12.38;;
78322;SDS011;67583;50.616;-3.404;2023-03-02T12:36:12;16.98;;;12.57;;
78322;SDS011;67583;50.616;-3.404;2023-03-02T12:44:15;14.68;;;10.55;;
78322;SDS011;67583;50.616;-3.404;2023-03-02T12:47:03;13.38;;;9.95;;
78322;SDS011;67583;50.616;-3.404;2023-03-02T12:49:42;15.57;;;11.18;;
78322;SDS011;67583;50.616;-3.404;2023-03-02T12:54:58;14.93;;;9.98;;
78322;SDS011;67583;50.616;-3.404;2023-03-02T12:57:31;18.92;;;11.73;;
78322;SDS011;67583;50.616;-3.404;2023-03-02T12:59:59;18.23;;;13.25;;
78322;SDS011;67583;50.616;-3.404;2023-03-02T13:02:27;17.08;;;12.13;;
78322;SDS011;67583;50.616;-3.404;2023-03-02T13:04:58;17.85;;;13.02;;
78322;SDS011;67583;50.616;-3.404;2023-03-02T13:07:26;17.20;;;12.20;;
78322;SDS011;67583;50.616;-3.404;2023-03-02T13:12:46;17.77;;;12.35;;
78322;SDS011;67583;50.616;-3.404;2023-03-02T13:15:12;13.10;;;9.90;;
78322;SDS011;67583;50.616;-3.404;2023-03-02T13:17:39;17.17;;;12.18;;
78322;SDS011;67583;50.616;-3.404;2023-03-02T13:20:05;16.17;;;11.10;;
78322;SDS011;67583;50.616;-3.404;2023-03-02T13:22:31;19.40;;;13.77;;
78322;SDS011;67583;50.616;-3.404;2023-03-02T13:24:57;17.83;;;12.55;;
78322;SDS011;67583;50.616;-3.404;2023-03-02T13:27:27;17.67;;;12.20;;
78322;SDS011;67583;50.616;-3.404;2023-03-02T13:29:54;18.25;;;13.00;;
78322;SDS011;67583;50.616;-3.404;2023-03-02T13:34:51;16.50;;;11.30;;
78322;SDS011;67583;50.616;-3.404;2023-03-02T13:37:21;20.33;;;13.77;;
78322;SDS011;67583;50.616;-3.404;2023-03-02T13:39:56;17.60;;;12.05;;
78322;SDS011;67583;50.616;-3.404;2023-03-02T13:42:33;16.52;;;11.45;;
78322;SDS011;67583;50.616;-3.404;2023-03-02T13:45:07;16.38;;;11.73;;
78322;SDS011;67583;50.616;-3.404;2023-03-02T13:47:52;16.98;;;11.98;;
78322;SDS011;67583;50.616;-3.404;2023-03-02T13:50:21;17.83;;;12.57;;
78322;SDS011;67583;50.616;-3.404;2023-03-02T13:52:48;17.02;;;11.65;;
78322;SDS011;67583;50.616;-3.404;2023-03-02T13:55:18;17.60;;;12.75;;
78322;SDS011;67583;50.616;-3.404;2023-03-02T13:57:44;17.05;;;11.23;;
78322;SDS011;67583;50.616;-3.404;2023-03-02T14:00:30;20.75;;;11.20;;
78322;SDS011;67583;50.616;-3.404;2023-03-02T14:02:57;18.90;;;13.48;;
78322;SDS011;67583;50.616;-3.404;2023-03-02T14:05:23;17.00;;;12.02;;
78322;SDS011;67583;50.616;-3.404;2023-03-02T14:07:51;16.35;;;12.10;;
78322;SDS011;67583;50.616;-3.404;2023-03-02T14:10:17;13.50;;;10.50;;
78322;SDS011;67583;50.616;-3.404;2023-03-02T14:12:54;15.43;;;10.75;;
78322;SDS011;67583;50.616;-3.404;2023-03-02T14:15:30;14.07;;;10.18;;
78322;SDS011;67583;50.616;-3.404;2023-03-02T14:17:56;14.63;;;11.00;;
78322;SDS011;67583;50.616;-3.404;2023-03-02T14:20:22;13.95;;;10.40;;
78322;SDS011;67583;50.616;-3.404;2023-03-02T14:22:47;14.20;;;10.60;;
78322;SDS011;67583;50.616;-3.404;2023-03-02T14:25:13;19.40;;;13.88;;
78322;SDS011;67583;50.616;-3.404;2023-03-02T14:27:39;16.05;;;11.20;;
78322;SDS011;67583;50.616;-3.404;2023-03-02T14:30:15;14.15;;;9.50;;
78322;SDS011;67583;50.616;-3.404;2023-03-02T14:32:42;13.75;;;9.30;;
78322;SDS011;67583;50.616;-3.404;2023-03-02T14:35:09;14.52;;;9.70;;
78322;SDS011;67583;50.616;-3.404;2023-03-02T14:37:35;15.38;;;10.82;;
78322;SDS011;67583;50.616;-3.404;2023-03-02T14:40:08;14.73;;;10.35;;
78322;SDS011;67583;50.616;-3.404;2023-03-02T14:42:39;16.05;;;9.38;;
78322;SDS011;67583;50.616;-3.404;2023-03-02T14:45:04;13.77;;;9.80;;
78322;SDS011;67583;50.616;-3.404;2023-03-02T14:47:32;15.48;;;9.50;;
78322;SDS011;67583;50.616;-3.404;2023-03-02T14:49:58;14.57;;;10.30;;
78322;SDS011;67583;50.616;-3.404;2023-03-02T14:52:34;12.23;;;9.55;;
78322;SDS011;67583;50.616;-3.404;2023-03-02T14:57:59;13.20;;;9.48;;
78322;SDS011;67583;50.616;-3.404;2023-03-02T15:00:28;14.27;;;11.50;;
78322;SDS011;67583;50.616;-3.404;2023-03-02T15:02:53;12.38;;;9.25;;
78322;SDS011;67583;50.616;-3.404;2023-03-02T15:05:18;12.70;;;9.25;;
78322;SDS011;67583;50.616;-3.404;2023-03-02T15:07:44;14.27;;;9.63;;
78322;SDS011;67583;50.616;-3.404;2023-03-02T15:10:12;17.45;;;10.52;;
78322;SDS011;67583;50.616;-3.404;2023-03-02T15:12:39;14.30;;;9.52;;
78322;SDS011;67583;50.616;-3.404;2023-03-02T15:15:05;13.63;;;9.40;;
78322;SDS011;67583;50.616;-3.404;2023-03-02T15:17:31;14.10;;;10.57;;
78322;SDS011;67583;50.616;-3.404;2023-03-02T15:19:56;14.63;;;10.52;;
78322;SDS011;67583;50.616;-3.404;2023-03-02T15:22:21;12.95;;;9.63;;
78322;SDS011;67583;50.616;-3.404;2023-03-02T15:24:47;14.70;;;10.80;;
78322;SDS011;67583;50.616;-3.404;2023-03-02T15:27:12;17.17;;;10.23;;
78322;SDS011;67583;50.616;-3.404;2023-03-02T15:29:41;14.40;;;9.93;;
78322;SDS011;67583;50.616;-3.404;2023-03-02T15:32:08;14.20;;;10.25;;
78322;SDS011;67583;50.616;-3.404;2023-03-02T15:34:33;14.25;;;9.40;;
78322;SDS011;67583;50.616;-3.404;2023-03-02T15:36:58;12.65;;;10.05;;
78322;SDS011;67583;50.616;-3.404;2023-03-02T15:39:24;12.15;;;9.70;;
78322;SDS011;67583;50.616;-3.404;2023-03-02T15:41:49;11.85;;;9.40;;
78322;SDS011;67583;50.616;-3.404;2023-03-02T15:44:15;14.52;;;10.20;;
78322;SDS011;67583;50.616;-3.404;2023-03-02T15:46:45;12.32;;;9.73;;
78322;SDS011;67583;50.616;-3.404;2023-03-02T15:49:14;12.52;;;10.32;;
78322;SDS011;67583;50.616;-3.404;2023-03-02T15:51:39;14.77;;;10.70;;
78322;SDS011;67583;50.616;-3.404;2023-03-02T15:54:05;14.20;;;11.02;;
78322;SDS011;67583;50.616;-3.404;2023-03-02T15:56:31;14.30;;;10.50;;
78322;SDS011;67583;50.616;-3.404;2023-03-02T15:58:56;12.70;;;9.70;;
78322;SDS011;67583;50.616;-3.404;2023-03-02T16:01:22;15.00;;;10.80;;
78322;SDS011;67583;50.616;-3.404;2023-03-02T16:03:47;14.20;;;9.82;;
78322;SDS011;67583;50.616;-3.404;2023-03-02T16:06:13;12.95;;;10.57;;
78322;SDS011;67583;50.616;-3.404;2023-03-02T16:08:40;13.85;;;10.75;;
78322;SDS011;67583;50.616;-3.404;2023-03-02T16:11:05;13.30;;;8.75;;
78322;SDS011;67583;50.616;-3.404;2023-03-02T16:13:32;15.77;;;10.52;;
78322;SDS011;67583;50.616;-3.404;2023-03-02T16:16:01;14.93;;;10.90;;
78322;SDS011;67583;50.616;-3.404;2023-03-02T16:18:28;13.75;;;10.68;;
78322;SDS011;67583;50.616;-3.404;2023-03-02T16:20:53;15.80;;;11.63;;
78322;SDS011;67583;50.616;-3.404;2023-03-02T16:23:19;14.05;;;11.00;;
78322;SDS011;67583;50.616;-3.404;2023-03-02T16:25:44;14.02;;;11.00;;
78322;SDS011;67583;50.616;-3.404;2023-03-02T16:28:13;15.10;;;11.02;;
78322;SDS011;67583;50.616;-3.404;2023-03-02T16:30:40;14.10;;;9.82;;
78322;SDS011;67583;50.616;-3.404;2023-03-02T16:33:08;17.90;;;12.18;;
78322;SDS011;67583;50.616;-3.404;2023-03-02T16:35:39;16.88;;;10.73;;
78322;SDS011;67583;50.616;-3.404;2023-03-02T16:38:05;18.02;;;11.57;;
78322;SDS011;67583;50.616;-3.404;2023-03-02T16:40:31;14.57;;;11.52;;
78322;SDS011;67583;50.616;-3.404;2023-03-02T16:42:57;14.80;;;11.68;;
78322;SDS011;67583;50.616;-3.404;2023-03-02T16:45:23;12.27;;;9.70;;
78322;SDS011;67583;50.616;-3.404;2023-03-02T16:47:48;14.27;;;9.93;;
78322;SDS011;67583;50.616;-3.404;2023-03-02T16:50:14;16.25;;;10.25;;
78322;SDS011;67583;50.616;-3.404;2023-03-02T16:52:40;15.30;;;10.98;;
78322;SDS011;67583;50.616;-3.404;2023-03-02T16:55:08;18.02;;;11.65;;
78322;SDS011;67583;50.616;-3.404;2023-03-02T16:57:36;12.95;;;9.77;;
78322;SDS011;67583;50.616;-3.404;2023-03-02T17:00:02;16.58;;;12.27;;
78322;SDS011;67583;50.616;-3.404;2023-03-02T17:02:30;14.25;;;11.13;;
78322;SDS011;67583;50.616;-3.404;2023-03-02T17:04:55;17.02;;;11.93;;
78322;SDS011;67583;50.616;-3.404;2023-03-02T17:07:20;14.82;;;10.98;;
78322;SDS011;67583;50.616;-3.404;2023-03-02T17:09:46;17.33;;;11.57;;
78322;SDS011;67583;50.616;-3.404;2023-03-02T17:12:11;17.02;;;12.68;;
78322;SDS011;67583;50.616;-3.404;2023-03-02T17:14:37;14.27;;;10.63;;
78322;SDS011;67583;50.616;-3.404;2023-03-02T17:17:02;17.95;;;11.80;;
78322;SDS011;67583;50.616;-3.404;2023-03-02T17:19:28;17.52;;;11.02;;
78322;SDS011;67583;50.616;-3.404;2023-03-02T17:21:57;18.80;;;11.07;;
78322;SDS011;67583;50.616;-3.404;2023-03-02T17:24:23;16.35;;;11.48;;
78322;SDS011;67583;50.616;-3.404;2023-03-02T17:26:49;15.57;;;10.95;;
78322;SDS011;67583;50.616;-3.404;2023-03-02T17:29:15;15.75;;;11.20;;
78322;SDS011;67583;50.616;-3.404;2023-03-02T17:31:40;16.92;;;10.88;;
78322;SDS011;67583;50.616;-3.404;2023-03-02T17:34:05;17.38;;;11.18;;
78322;SDS011;67583;50.616;-3.404;2023-03-02T17:36:31;18.13;;;10.30;;
78322;SDS011;67583;50.616;-3.404;2023-03-02T17:38:57;17.90;;;11.57;;
78322;SDS011;67583;50.616;-3.404;2023-03-02T17:41:22;16.90;;;11.38;;
78322;SDS011;67583;50.616;-3.404;2023-03-02T17:43:48;16.88;;;9.73;;
78322;SDS011;67583;50.616;-3.404;2023-03-02T17:46:21;15.48;;;9.18;;
78322;SDS011;67583;50.616;-3.404;2023-03-02T17:48:49;17.58;;;10.68;;
78322;SDS011;67583;50.616;-3.404;2023-03-02T17:51:16;15.48;;;11.00;;
78322;SDS011;67583;50.616;-3.404;2023-03-02T17:53:45;19.45;;;13.45;;
78322;SDS011;67583;50.616;-3.404;2023-03-02T17:56:13;15.27;;;11.85;;